Time;durP1;ratioP1;P1;durP2;ratioP2;P2;SDS_P1;SDS_P2;PMS_P1;PMS_P2;Temp;Humidity;BMP_temperature;BMP_pressure;BME280_temperature;BME280_humidity;BME280_pressure;Samples;Min_cycle;Max_cycle;Signal;HPM_P1;HPM_P2
2022/07/26 00:00:08;;;;;;;9.55;5.82;;;;;;;22.57;100.00;96288.44;5042657;28;20076;-47
2022/07/26 00:02:37;;;;;;;8.32;5.90;;;;;;;22.44;100.00;96281.38;5040284;28;20064;-47
2022/07/26 00:05:07;;;;;;;10.07;5.47;;;;;;;22.29;100.00;96280.91;5041469;28;20084;-49
2022/07/26 00:07:35;;;;;;;7.85;5.35;;;;;;;22.42;100.00;96275.41;5041645;28;20400;-47
2022/07/26 00:10:05;;;;;;;8.68;5.45;;;;;;;22.62;100.00;96266.28;5042159;28;20648;-52
2022/07/26 00:12:34;;;;;;;9.55;5.57;;;;;;;22.36;100.00;96270.91;5042964;28;20643;-49
2022/07/26 00:15:04;;;;;;;7.75;5.18;;;;;;;22.49;100.00;96275.31;5027269;28;20134;-55
2022/07/26 00:17:32;;;;;;;7.88;5.38;;;;;;;22.61;100.00;96270.84;5042348;28;20159;-51
2022/07/26 00:20:01;;;;;;;8.98;5.63;;;;;;;22.38;100.00;96266.16;5043838;28;20075;-53
2022/07/26 00:22:35;;;;;;;8.48;5.25;;;;;;;22.66;100.00;96265.59;5038059;28;20072;-47
2022/07/26 00:25:05;;;;;;;6.88;5.22;;;;;;;22.85;100.00;96261.03;5037515;28;20270;-48
2022/07/26 00:27:36;;;;;;;7.65;5.32;;;;;;;22.52;100.00;96262.25;5044288;28;20103;-47
2022/07/26 00:30:06;;;;;;;9.10;5.72;;;;;;;22.66;100.00;96262.91;5043924;28;20064;-58
2022/07/26 00:32:35;;;;;;;8.07;5.47;;;;;;;22.37;100.00;96277.94;5043753;28;20068;-47
2022/07/26 00:35:04;;;;;;;6.65;5.22;;;;;;;22.40;100.00;96285.56;5042042;28;20542;-49
2022/07/26 00:37:33;;;;;;;8.95;5.53;;;;;;;22.62;100.00;96277.88;5042822;28;20661;-48
2022/07/26 00:40:01;;;;;;;8.93;5.55;;;;;;;22.24;100.00;96280.78;5028335;28;20060;-52
2022/07/26 00:42:30;;;;;;;9.90;5.45;;;;;;;22.67;100.00;96271.81;5043368;28;20076;-52
2022/07/26 00:45:00;;;;;;;5.15;4.65;;;;;;;22.86;100.00;96261.88;5041122;28;20080;-51
2022/07/26 00:47:28;;;;;;;6.38;5.15;;;;;;;22.83;100.00;96259.63;5000596;28;1199931;-50
2022/07/26 00:49:56;;;;;;;7.72;5.60;;;;;;;22.44;100.00;96259.88;5045007;28;20458;-47
2022/07/26 00:52:26;;;;;;;7.68;5.82;;;;;;;22.99;100.00;96261.72;5042523;28;20103;-49
2022/07/26 00:54:55;;;;;;;8.67;5.67;;;;;;;22.93;100.00;96255.38;5043918;28;20069;-52
2022/07/26 00:57:23;;;;;;;8.57;5.40;;;;;;;22.89;100.00;96246.09;5043389;28;20076;-48
2022/07/26 00:59:52;;;;;;;7.82;5.70;;;;;;;22.84;100.00;96240.56;5026656;28;20064;-47
2022/07/26 01:02:22;;;;;;;10.35;5.38;;;;;;;22.89;100.00;96234.53;5043256;28;20069;-47
2022/07/26 01:04:51;;;;;;;7.25;5.20;;;;;;;23.07;100.00;96237.19;5042294;28;20083;-47
2022/07/26 01:07:21;;;;;;;7.80;5.68;;;;;;;22.90;100.00;96226.22;5041811;28;20060;-50
2022/07/26 01:09:49;;;;;;;7.28;5.22;;;;;;;22.85;100.00;96226.09;5044359;28;20129;-51
2022/07/26 01:12:18;;;;;;;7.75;5.10;;;;;;;22.70;100.00;96231.84;5044526;28;20072;-46
2022/07/26 01:14:46;;;;;;;8.88;5.40;;;;;;;23.04;100.00;96228.75;5044502;28;20084;-49
2022/07/26 01:17:15;;;;;;;7.75;5.50;;;;;;;22.61;100.00;96227.84;5043303;28;20077;-47
2022/07/26 01:19:45;;;;;;;8.65;5.60;;;;;;;22.57;100.00;96232.00;5044869;28;20096;-49
2022/07/26 01:22:14;;;;;;;7.40;5.90;;;;;;;22.39;100.00;96240.09;5042064;28;20072;-46
2022/07/26 01:24:43;;;;;;;7.38;5.65;;;;;;;22.80;100.00;96231.31;5044942;28;20076;-48
2022/07/26 01:27:11;;;;;;;7.55;5.82;;;;;;;22.89;100.00;96226.44;5039999;28;20179;-47
2022/07/26 01:29:40;;;;;;;7.57;5.45;;;;;;;22.63;100.00;96222.22;5041822;28;20609;-49
2022/07/26 01:32:08;;;;;;;8.27;5.40;;;;;;;22.89;100.00;96226.44;5044494;28;20076;-47
2022/07/26 01:34:37;;;;;;;7.43;5.90;;;;;;;22.91;100.00;96217.09;5041887;28;20068;-50
2022/07/26 01:37:05;;;;;;;9.07;5.40;;;;;;;23.35;100.00;96211.53;5043690;28;20088;-52
2022/07/26 01:39:35;;;;;;;6.88;5.55;;;;;;;23.12;100.00;96218.47;5043533;28;20077;-48
2022/07/26 01:42:05;;;;;;;8.93;5.35;;;;;;;23.04;100.00;96226.88;5045812;28;20527;-48
2022/07/26 01:44:34;;;;;;;10.05;5.80;;;;;;;23.21;100.00;96224.34;5044342;28;20479;-50
2022/07/26 01:47:02;;;;;;;8.02;5.57;;;;;;;23.23;100.00;96222.28;5041679;28;20093;-49
2022/07/26 01:49:30;;;;;;;7.03;5.65;;;;;;;23.01;100.00;96223.81;5042485;28;20527;-50
2022/07/26 01:51:59;;;;;;;8.60;5.82;;;;;;;23.05;100.00;96230.38;5041754;28;20080;-47
2022/07/26 01:54:27;;;;;;;9.80;5.57;;;;;;;22.95;100.00;96233.63;5042663;28;20087;-47
2022/07/26 01:56:57;;;;;;;10.65;5.72;;;;;;;23.04;100.00;96232.25;5039706;28;20088;-50
2022/07/26 01:59:25;;;;;;;8.10;5.60;;;;;;;22.85;100.00;96233.31;5042922;28;20100;-49
2022/07/26 02:01:54;;;;;;;10.52;5.32;;;;;;;22.74;100.00;96224.16;5041720;28;20084;-48
2022/07/26 02:07:08;;;;;;;8.60;5.43;;;;;;;22.95;100.00;96223.72;5042877;28;20080;-46
2022/07/26 02:09:40;;;;;;;8.52;5.53;;;;;;;22.86;100.00;96216.97;5041200;28;20057;-49
2022/07/26 02:12:10;;;;;;;9.02;5.78;;;;;;;22.81;100.00;96221.38;5042168;28;20107;-45
2022/07/26 02:14:38;;;;;;;8.95;6.25;;;;;;;22.90;100.00;96217.31;5042795;28;20531;-46
2022/07/26 02:17:07;;;;;;;9.27;5.65;;;;;;;22.87;100.00;96215.91;5043119;28;20083;-47
2022/07/26 02:19:35;;;;;;;8.30;5.72;;;;;;;22.87;100.00;96217.78;5041002;28;20835;-54
2022/07/26 02:22:04;;;;;;;7.10;5.18;;;;;;;22.74;100.00;96216.09;5041023;28;20439;-48
2022/07/26 02:24:33;;;;;;;6.85;5.25;;;;;;;22.80;100.00;96207.13;5042575;28;20167;-46
2022/07/26 02:27:03;;;;;;;7.55;5.65;;;;;;;22.90;100.00;96198.50;5041862;28;20119;-47
2022/07/26 02:29:33;;;;;;;8.10;5.40;;;;;;;22.70;100.00;96209.53;5042879;28;20103;-53
2022/07/26 02:32:01;;;;;;;8.38;5.47;;;;;;;23.03;100.00;96217.19;5041650;28;20089;-54
2022/07/26 02:34:30;;;;;;;14.77;5.88;;;;;;;22.95;100.00;96214.78;5043131;28;20096;-49
2022/07/26 02:37:01;;;;;;;8.55;5.75;;;;;;;23.07;100.00;96215.66;5043354;28;20080;-47
2022/07/26 02:39:30;;;;;;;9.07;5.90;;;;;;;22.89;100.00;96219.19;5042510;28;20454;-51
2022/07/26 02:42:01;;;;;;;10.27;5.93;;;;;;;22.86;100.00;96230.41;5044624;28;20081;-51
2022/07/26 02:44:29;;;;;;;7.57;5.57;;;;;;;23.07;100.00;96223.72;5046583;28;20095;-57
2022/07/26 02:46:59;;;;;;;10.48;6.07;;;;;;;23.15;100.00;96227.97;5047653;28;20095;-48
2022/07/26 02:49:28;;;;;;;9.43;5.63;;;;;;;23.13;100.00;96230.06;5045338;28;20084;-47
2022/07/26 02:51:56;;;;;;;7.78;5.63;;;;;;;22.80;100.00;96222.44;5044689;28;20088;-49
2022/07/26 02:54:24;;;;;;;6.93;5.55;;;;;;;23.13;100.00;96225.50;5044691;28;20077;-49
2022/07/26 02:56:53;;;;;;;8.82;5.57;;;;;;;23.04;100.00;96229.56;5041389;28;20084;-50
2022/07/26 02:59:21;;;;;;;11.40;5.65;;;;;;;23.14;100.00;96216.38;5046527;28;20077;-55
2022/07/26 03:01:49;;;;;;;9.13;5.55;;;;;;;23.00;100.00;96220.31;5047387;28;20081;-53
2022/07/26 03:04:19;;;;;;;7.20;5.47;;;;;;;23.04;100.00;96224.19;5043457;28;20084;-50
2022/07/26 03:06:47;;;;;;;11.93;5.88;;;;;;;22.84;100.00;96219.06;5047696;28;20084;-47
2022/07/26 03:09:16;;;;;;;7.13;5.38;;;;;;;23.29;100.00;96212.44;5045126;28;20088;-56
2022/07/26 03:11:44;;;;;;;8.68;5.60;;;;;;;22.64;100.00;96226.56;5046209;28;20089;-53
2022/07/26 03:14:13;;;;;;;9.77;5.70;;;;;;;22.93;100.00;96224.97;5046046;28;20099;-49
2022/07/26 03:16:41;;;;;;;11.85;5.13;;;;;;;23.14;100.00;96219.06;5044653;28;20079;-48
2022/07/26 03:19:09;;;;;;;7.05;4.72;;;;;;;22.93;100.00;96220.41;5048022;28;20077;-47
2022/07/26 03:21:39;;;;;;;9.43;5.10;;;;;;;22.79;100.00;96221.63;5042377;28;20073;-54
2022/07/26 03:24:08;;;;;;;9.88;4.43;;;;;;;23.09;100.00;96220.81;5045617;28;20084;-50
2022/07/26 03:26:37;;;;;;;6.75;5.00;;;;;;;23.08;100.00;96222.69;5043736;28;20091;-51
2022/07/26 03:29:05;;;;;;;7.13;4.85;;;;;;;23.06;100.00;96232.84;5045288;28;20087;-52
2022/07/26 03:31:35;;;;;;;6.40;4.43;;;;;;;22.82;100.00;96226.53;5044482;28;20088;-55
2022/07/26 03:34:04;;;;;;;7.50;4.80;;;;;;;22.98;100.00;96223.22;5044148;28;20076;-50
2022/07/26 03:36:33;;;;;;;7.88;4.50;;;;;;;22.96;100.00;96216.44;5047117;28;20096;-52
2022/07/26 03:39:03;;;;;;;5.10;4.15;;;;;;;23.04;100.00;96218.81;5045601;28;20080;-53
2022/07/26 03:41:31;;;;;;;7.72;4.47;;;;;;;22.91;100.00;96213.59;5043842;28;20087;-47
2022/07/26 03:44:00;;;;;;;7.93;4.63;;;;;;;22.90;100.00;96217.31;5044412;28;20147;-54
2022/07/26 03:46:28;;;;;;;6.55;4.47;;;;;;;22.76;100.00;96214.00;5046185;28;20535;-54
2022/07/26 03:48:57;;;;;;;5.00;4.50;;;;;;;22.91;100.00;96214.41;5046657;28;20084;-48
2022/07/26 03:51:26;;;;;;;5.97;4.53;;;;;;;23.05;100.00;96211.56;5045751;28;20451;-55
2022/07/26 03:53:54;;;;;;;6.50;4.70;;;;;;;23.25;100.00;96211.25;5044029;28;20460;-47
2022/07/26 03:56:33;;;;;;;6.45;4.50;;;;;;;22.66;100.00;96214.53;5043401;28;20476;-50
2022/07/26 03:59:03;;;;;;;7.45;4.90;;;;;;;22.71;100.00;96217.38;5045920;28;20076;-55
2022/07/26 04:01:33;;;;;;;;;;;;;;;22.56;100.00;96216.94;5042803;28;20091;-50
2022/07/26 04:04:02;;;;;;;7.28;4.22;;;;;;;22.49;100.00;96213.53;5041803;28;19972;-48
2022/07/26 04:06:30;;;;;;;8.48;4.95;;;;;;;22.69;100.00;96221.34;5044056;28;20077;-48
2022/07/26 04:08:59;;;;;;;8.13;5.30;;;;;;;22.80;100.00;96223.25;5043637;28;20087;-45
2022/07/26 04:11:28;;;;;;;7.00;4.88;;;;;;;22.68;100.00;96227.75;5043017;28;20129;-47
2022/07/26 04:13:57;;;;;;;6.20;5.15;;;;;;;22.52;100.00;96221.94;5044836;28;20076;-56
2022/07/26 04:16:26;;;;;;;6.15;4.80;;;;;;;22.49;100.00;96221.56;5043792;28;20084;-51
2022/07/26 04:18:54;;;;;;;6.57;5.30;;;;;;;22.72;100.00;96220.88;5042212;28;20487;-49
2022/07/26 04:21:23;;;;;;;6.57;4.82;;;;;;;22.68;100.00;96217.00;5045437;28;20083;-49
2022/07/26 04:23:51;;;;;;;7.45;4.75;;;;;;;22.63;100.00;96223.06;5044463;28;20444;-51
2022/07/26 04:26:20;;;;;;;6.85;5.00;;;;;;;22.83;100.00;96230.88;5043729;28;20100;-49
2022/07/26 04:28:50;;;;;;;6.82;4.88;;;;;;;22.25;100.00;96226.00;5044123;28;20495;-54
2022/07/26 04:31:18;;;;;;;7.05;4.93;;;;;;;22.48;100.00;96226.13;5044796;28;20687;-49
2022/07/26 04:33:47;;;;;;;7.88;5.03;;;;;;;22.59;100.00;96232.63;5045287;28;20591;-49
2022/07/26 04:36:15;;;;;;;5.90;4.70;;;;;;;22.54;100.00;96235.19;5041603;28;20095;-54
2022/07/26 04:38:44;;;;;;;7.30;4.97;;;;;;;22.51;100.00;96236.44;5043592;28;20615;-49
2022/07/26 04:41:12;;;;;;;5.55;3.78;;;;;;;21.94;100.00;96245.72;5045057;28;20099;-49
2022/07/26 04:43:41;;;;;;;5.30;4.18;;;;;;;22.16;100.00;96251.50;5044067;28;20510;-50
2022/07/26 04:46:10;;;;;;;7.20;4.45;;;;;;;22.30;100.00;96242.28;5042843;28;20103;-52
2022/07/26 04:48:39;;;;;;;7.22;4.68;;;;;;;22.49;100.00;96246.59;5044878;28;20076;-49
2022/07/26 04:51:07;;;;;;;6.80;4.45;;;;;;;22.31;100.00;96243.09;5039718;28;20076;-48
2022/07/26 04:53:36;;;;;;;6.43;4.57;;;;;;;22.37;100.00;96243.03;5042614;28;20072;-52
2022/07/26 04:56:05;;;;;;;6.60;4.30;;;;;;;22.46;100.00;96247.03;5045330;28;20057;-50
2022/07/26 04:58:34;;;;;;;6.00;4.47;;;;;;;22.49;100.00;96243.91;5043861;28;20079;-60
2022/07/26 05:01:02;;;;;;;7.40;4.60;;;;;;;22.47;100.00;96251.38;5044544;28;20084;-49
2022/07/26 05:03:40;;;;;;;6.40;4.40;;;;;;;22.51;100.00;96247.19;5041043;28;20515;-57
2022/07/26 05:06:08;;;;;;;6.18;4.60;;;;;;;22.70;100.00;96239.09;5043486;28;20084;-52
2022/07/26 05:08:37;;;;;;;8.40;4.72;;;;;;;22.65;100.00;96253.22;5043056;28;20112;-55
2022/07/26 05:11:05;;;;;;;7.30;4.55;;;;;;;22.64;100.00;96248.06;5043119;28;20088;-60
2022/07/26 05:13:34;;;;;;;8.30;5.00;;;;;;;22.61;100.00;96248.50;5042838;28;20073;-50
2022/07/26 05:16:02;;;;;;;5.70;4.60;;;;;;;22.50;100.00;96255.47;5044323;28;20080;-49
2022/07/26 05:18:40;;;;;;;8.77;4.72;;;;;;;22.55;100.00;96252.94;5042877;28;20073;-50
2022/07/26 05:21:17;;;;;;;7.80;5.25;;;;;;;22.88;100.00;96252.53;5042500;28;20084;-49
2022/07/26 05:23:46;;;;;;;6.53;5.03;;;;;;;22.87;100.00;96250.06;5042463;28;20099;-46
2022/07/26 05:26:15;;;;;;;6.65;4.60;;;;;;;22.83;100.00;96251.56;5041871;28;20081;-50
2022/07/26 05:28:43;;;;;;;8.02;4.82;;;;;;;22.63;100.00;96249.94;5041748;28;20073;-47
2022/07/26 05:31:11;;;;;;;8.55;4.78;;;;;;;22.41;100.00;96246.91;5043481;28;20072;-50
2022/07/26 05:33:41;;;;;;;10.43;5.10;;;;;;;22.58;100.00;96252.50;5042790;28;20412;-56
2022/07/26 05:36:10;;;;;;;8.85;5.30;;;;;;;22.35;100.00;96260.41;5043355;28;20087;-51
2022/07/26 05:38:39;;;;;;;9.32;5.20;;;;;;;22.37;100.00;96263.69;5041522;28;20099;-53
2022/07/26 05:41:07;;;;;;;10.20;5.60;;;;;;;22.54;100.00;96261.19;5043602;28;20525;-50
2022/07/26 05:43:36;;;;;;;8.50;5.80;;;;;;;22.82;100.00;96260.69;5026796;28;20147;-52
2022/07/26 05:46:10;;;;;;;10.07;5.30;;;;;;;22.47;100.00;96272.03;5041965;28;20080;-48
2022/07/26 05:48:39;;;;;;;9.32;5.15;;;;;;;23.10;100.00;96269.00;5045266;28;20077;-47
2022/07/26 05:51:09;;;;;;;10.23;5.72;;;;;;;23.08;100.00;96267.59;5044423;28;20073;-50
2022/07/26 05:53:38;;;;;;;8.50;5.55;;;;;;;23.06;100.00;96267.00;5042173;28;20087;-51
2022/07/26 05:56:07;;;;;;;11.88;5.55;;;;;;;23.46;100.00;96259.97;5044688;28;20056;-51
2022/07/26 05:58:36;;;;;;;12.38;5.80;;;;;;;23.32;100.00;96253.16;5040279;28;20541;-54
2022/07/26 06:01:05;;;;;;;10.70;5.40;;;;;;;23.42;100.00;96256.09;5043201;28;20424;-48
2022/07/26 06:03:33;;;;;;;7.03;5.35;;;;;;;23.19;100.00;96266.78;5042719;28;20071;-56
2022/07/26 06:06:02;;;;;;;9.07;5.97;;;;;;;23.37;100.00;96269.44;5043519;28;20076;-47
2022/07/26 06:08:31;;;;;;;9.95;6.05;;;;;;;23.37;100.00;96268.63;5042250;28;20092;-56
2022/07/26 06:11:00;;;;;;;12.00;6.13;;;;;;;23.64;100.00;96266.31;5023577;28;20143;-56
2022/07/26 06:13:28;;;;;;;8.38;5.78;;;;;;;23.15;100.00;96266.44;5042319;28;20072;-48
2022/07/26 06:15:56;;;;;;;10.63;6.05;;;;;;;23.25;100.00;96268.56;5042829;28;20092;-53
2022/07/26 06:18:25;;;;;;;9.02;6.05;;;;;;;23.71;100.00;96259.00;5051012;28;20076;-52
2022/07/26 06:20:54;;;;;;;13.55;5.95;;;;;;;23.53;100.00;96267.13;5051012;28;20429;-49
2022/07/26 06:23:29;;;;;;;8.60;5.57;;;;;;;23.98;100.00;96259.34;5048043;28;20296;-57
2022/07/26 06:26:04;;;;;;;7.95;5.50;;;;;;;23.92;100.00;96266.53;5047028;28;20452;-53
2022/07/26 06:28:33;;;;;;;8.43;5.65;;;;;;;24.00;100.00;96259.13;5053522;28;21190;-50
2022/07/26 06:31:01;;;;;;;8.23;5.82;;;;;;;23.35;100.00;96268.03;5050105;28;20463;-56
2022/07/26 06:33:30;;;;;;;9.13;5.50;;;;;;;23.58;100.00;96270.78;5049356;28;20084;-51
2022/07/26 06:35:59;;;;;;;7.55;5.78;;;;;;;23.14;100.00;96280.13;5050572;28;20072;-50
2022/07/26 06:38:28;;;;;;;8.43;5.60;;;;;;;23.28;100.00;96278.88;5053041;28;20080;-50
2022/07/26 06:40:56;;;;;;;8.35;5.30;;;;;;;23.80;100.00;96275.63;5050876;28;20530;-53
2022/07/26 06:43:26;;;;;;;7.38;5.15;;;;;;;23.52;100.00;96279.78;5049561;28;20072;-52
2022/07/26 06:45:54;;;;;;;8.52;5.32;;;;;;;23.78;100.00;96281.25;5047492;28;20087;-54
2022/07/26 06:48:23;;;;;;;8.18;5.43;;;;;;;23.86;100.00;96283.59;5046212;28;20735;-50
2022/07/26 06:50:51;;;;;;;12.45;5.43;;;;;;;23.71;100.00;96282.41;5049392;28;20085;-52
2022/07/26 06:53:20;;;;;;;7.47;5.45;;;;;;;23.76;100.00;96287.94;5051660;28;20546;-49
2022/07/26 06:55:48;;;;;;;8.15;5.82;;;;;;;23.42;100.00;96288.41;5046965;28;20065;-50
2022/07/26 06:58:17;;;;;;;8.77;5.43;;;;;;;23.73;100.00;96291.09;5049924;28;21058;-53
2022/07/26 07:00:46;;;;;;;8.02;5.65;;;;;;;24.05;100.00;96286.19;5047315;28;20732;-54
2022/07/26 07:03:15;;;;;;;8.38;5.57;;;;;;;23.72;100.00;96284.88;5048025;28;20072;-52
2022/07/26 07:05:44;;;;;;;10.48;5.80;;;;;;;24.06;100.00;96290.53;5047337;28;20099;-49
2022/07/26 07:08:20;;;;;;;7.00;5.65;;;;;;;23.86;100.00;96294.38;5046939;28;20092;-49
2022/07/26 07:10:50;;;;;;;8.57;5.70;;;;;;;23.59;100.00;96291.25;5051849;28;20084;-49
2022/07/26 07:13:19;;;;;;;7.13;5.40;;;;;;;23.75;100.00;96286.28;5050811;28;20091;-51
2022/07/26 07:15:49;;;;;;;9.02;5.38;;;;;;;23.44;100.00;96302.47;5050010;28;20056;-52
2022/07/26 07:18:18;;;;;;;7.82;4.50;;;;;;;23.41;100.00;96292.16;5052653;28;20084;-53
2022/07/26 07:20:47;;;;;;;7.13;4.30;;;;;;;23.65;100.00;96284.94;5053407;28;20084;-50
2022/07/26 07:23:15;;;;;;;6.00;4.05;;;;;;;23.23;100.00;96289.53;5052111;28;20091;-50
2022/07/26 07:25:44;;;;;;;8.25;3.65;;;;;;;23.17;100.00;96283.19;5050111;28;20079;-52
2022/07/26 07:28:16;;;;;;;5.50;3.88;;;;;;;23.13;100.00;96283.88;5049475;28;20075;-52
2022/07/26 07:30:47;;;;;;;6.72;3.67;;;;;;;23.40;100.00;96279.75;5049953;28;20049;-49
2022/07/26 07:33:17;;;;;;;6.65;3.58;;;;;;;23.09;100.00;96285.34;5051164;28;20435;-49
2022/07/26 07:35:51;;;;;;;5.97;3.10;;;;;;;23.20;100.00;96284.59;5049212;28;20511;-50
2022/07/26 07:38:19;;;;;;;6.63;3.00;;;;;;;23.16;100.00;96294.19;5049253;28;20080;-54
2022/07/26 07:40:49;;;;;;;;;;;;;;;23.14;100.00;96291.72;5053174;28;20398;-54
2022/07/26 07:43:18;;;;;;;10.02;4.50;;;;;;;23.46;100.00;96284.19;5046853;28;20358;-51
2022/07/26 07:45:46;;;;;;;7.95;3.85;;;;;;;22.80;100.00;96287.78;5048295;28;20084;-47
2022/07/26 07:48:17;;;;;;;7.70;4.10;;;;;;;22.86;100.00;96286.06;5048921;28;20076;-55
2022/07/26 07:50:46;;;;;;;7.57;4.38;;;;;;;23.00;100.00;96286.75;5046436;28;20077;-52
2022/07/26 07:53:14;;;;;;;6.47;3.78;;;;;;;22.63;100.00;96282.19;5050507;28;20095;-52
2022/07/26 07:55:43;;;;;;;6.05;4.18;;;;;;;22.80;100.00;96279.72;5042440;28;20092;-52
2022/07/26 07:58:15;;;;;;;6.32;4.30;;;;;;;23.46;100.00;96273.44;5048244;28;20080;-46
2022/07/26 08:00:46;;;;;;;5.65;4.18;;;;;;;23.53;100.00;96276.03;5052461;28;20183;-52
2022/07/26 08:03:17;;;;;;;4.63;3.47;;;;;;;23.72;100.00;96284.06;5046237;28;20091;-50
2022/07/26 08:05:47;;;;;;;6.78;3.58;;;;;;;23.92;100.00;96285.38;5050021;28;20080;-48
2022/07/26 08:08:17;;;;;;;5.88;3.70;;;;;;;23.77;100.00;96282.28;5049706;28;20087;-54
2022/07/26 08:10:51;;;;;;;6.35;4.00;;;;;;;24.11;100.00;96287.94;5048535;28;20467;-57
2022/07/26 08:13:21;;;;;;;14.50;4.97;;;;;;;24.73;100.00;96282.03;5050731;28;20092;-52
2022/07/26 08:15:50;;;;;;;7.30;4.17;;;;;;;24.80;100.00;96278.16;5041306;28;20096;-54
2022/07/26 08:18:20;;;;;;;5.95;3.92;;;;;;;25.42;100.00;96282.84;5047909;28;20075;-50
2022/07/26 08:20:50;;;;;;;7.20;4.13;;;;;;;25.21;100.00;96284.38;5045522;28;20088;-54
2022/07/26 08:23:19;;;;;;;7.07;3.50;;;;;;;24.73;100.00;96288.25;5053620;28;20065;-52
2022/07/26 08:25:48;;;;;;;5.78;3.70;;;;;;;25.55;100.00;96282.56;5045741;28;20155;-53
2022/07/26 08:28:25;;;;;;;6.38;3.55;;;;;;;25.34;100.00;96288.66;5045862;28;20080;-51
2022/07/26 08:31:14;;;;;;;5.90;3.70;;;;;;;24.86;100.00;96292.56;5048166;28;20075;-49
2022/07/26 08:33:44;;;;;;;6.28;3.40;;;;;;;25.12;100.00;96290.38;5048089;28;20077;-50
2022/07/26 08:36:15;;;;;;;7.43;3.67;;;;;;;26.13;100.00;96293.25;5047205;28;20076;-49
2022/07/26 08:38:43;;;;;;;6.97;3.75;;;;;;;25.79;100.00;96301.31;5045662;28;20083;-49
2022/07/26 08:41:16;;;;;;;8.60;3.80;;;;;;;25.29;100.00;96299.34;5048209;28;20087;-53
2022/07/26 08:43:45;;;;;;;7.80;4.10;;;;;;;25.44;100.00;96299.66;5040831;28;20096;-53
2022/07/26 08:46:20;;;;;;;7.22;4.28;;;;;;;25.01;100.00;96305.53;5048081;28;20075;-52
2022/07/26 08:48:55;;;;;;;5.05;3.80;;;;;;;25.06;100.00;96316.44;5048873;28;20080;-52
2022/07/26 08:51:26;;;;;;;6.45;4.22;;;;;;;24.95;100.00;96319.97;5047009;28;20087;-61
2022/07/26 08:53:56;;;;;;;5.20;3.85;;;;;;;24.90;100.00;96317.19;5043685;28;20077;-50
2022/07/26 08:56:33;;;;;;;6.57;3.78;;;;;;;24.28;100.00;96321.22;5045819;28;20084;-50
2022/07/26 08:59:04;;;;;;;5.37;3.33;;;;;;;24.54;100.00;96325.34;5048751;28;20068;-51
2022/07/26 09:01:33;;;;;;;5.05;3.67;;;;;;;24.37;100.00;96330.59;5047070;28;20081;-50
2022/07/26 09:04:21;;;;;;;4.93;3.45;;;;;;;24.74;100.00;96329.53;5045912;28;20209;-47
2022/07/26 09:07:12;;;;;;;5.55;3.33;;;;;;;24.39;100.00;96331.16;5044702;28;20607;-51
2022/07/26 09:09:57;;;;;;;7.63;3.63;;;;;;;24.78;100.00;96331.53;5043526;28;20568;-52
2022/07/26 09:12:27;;;;;;;5.65;3.53;;;;;;;24.02;100.00;96337.84;5026852;28;20076;-48
2022/07/26 09:14:56;;;;;;;6.78;3.78;;;;;;;24.27;100.00;96333.06;5043442;28;20083;-53
2022/07/26 09:17:25;;;;;;;4.05;3.05;;;;;;;24.46;100.00;96330.25;5028629;28;20075;-48
2022/07/26 09:20:08;;;;;;;6.43;3.60;;;;;;;24.75;100.00;96318.50;5044595;28;20072;-48
2022/07/26 09:22:37;;;;;;;5.38;3.17;;;;;;;24.35;100.00;96324.63;5041229;28;20064;-48
2022/07/26 09:25:20;;;;;;;4.88;3.10;;;;;;;24.52;100.00;96326.63;5047093;28;20118;-50
2022/07/26 09:27:48;;;;;;;10.55;3.85;;;;;;;25.01;100.00;96321.72;5046396;28;20079;-49
2022/07/26 09:30:17;;;;;;;5.68;3.20;;;;;;;24.81;100.00;96319.41;5045556;28;20089;-51
2022/07/26 09:32:57;;;;;;;3.85;2.97;;;;;;;24.42;100.00;96326.41;5031231;28;20548;-55
2022/07/26 09:35:28;;;;;;;5.20;3.17;;;;;;;24.93;100.00;96316.72;5047931;28;20089;-53
2022/07/26 09:38:17;;;;;;;4.45;3.08;;;;;;;25.23;100.00;96320.03;5043827;28;20464;-49
2022/07/26 09:40:45;;;;;;;6.20;3.08;;;;;;;25.38;100.00;96322.22;5040634;28;20617;-51
2022/07/26 09:43:18;;;;;;;5.82;3.45;;;;;;;25.23;100.00;96314.66;5043788;28;20623;-50
2022/07/26 09:46:05;;;;;;;5.93;3.40;;;;;;;25.92;100.00;96322.66;5045372;28;20599;-48
2022/07/26 09:48:37;;;;;;;5.15;2.95;;;;;;;25.67;100.00;96312.22;5047592;28;20087;-55
2022/07/26 09:51:38;;;;;;;4.00;3.10;;;;;;;25.45;100.00;96322.06;5048034;28;20088;-50
2022/07/26 09:54:07;;;;;;;6.10;3.67;;;;;;;26.61;100.00;96313.44;5050364;28;20080;-47
2022/07/26 09:56:47;;;;;;;5.45;3.40;;;;;;;26.82;100.00;96315.34;5048388;28;20515;-48
2022/07/26 09:59:17;;;;;;;6.35;3.10;;;;;;;27.29;100.00;96314.00;5049096;28;20068;-47
2022/07/26 10:01:47;;;;;;;4.95;2.88;;;;;;;26.54;100.00;96312.78;5048832;28;20081;-50
2022/07/26 10:04:33;;;;;;;6.88;3.03;;;;;;;26.78;100.00;96308.78;5046467;28;20065;-50
2022/07/26 10:07:20;;;;;;;5.97;2.78;;;;;;;26.98;100.00;96310.94;5054811;28;20060;-56
2022/07/26 10:10:04;;;;;;;6.43;2.75;;;;;;;27.98;100.00;96300.63;5055691;28;20076;-49
2022/07/26 10:12:33;;;;;;;4.63;2.72;;;;;;;27.44;100.00;96306.06;5049110;28;20467;-49
2022/07/26 10:15:01;;;;;;;4.65;2.95;;;;;;;27.54;100.00;96306.16;5052093;28;20460;-47
2022/07/26 10:17:41;;;;;;;4.28;2.70;;;;;;;27.73;100.00;96311.19;5052157;28;20077;-49
2022/07/26 10:20:12;;;;;;;5.25;2.72;;;;;;;26.57;100.00;96306.91;5050591;28;20080;-48
2022/07/26 10:22:49;;;;;;;5.05;2.70;;;;;;;26.23;100.00;96301.50;5054406;28;20079;-53
2022/07/26 10:25:46;;;;;;;4.18;3.00;;;;;;;27.05;100.00;96299.88;5053654;28;20088;-53
2022/07/26 10:28:25;;;;;;;4.63;3.15;;;;;;;27.29;100.00;96286.91;5047274;28;20439;-48
2022/07/26 10:31:24;;;;;;;4.43;2.95;;;;;;;27.15;100.00;96281.09;5048991;28;20073;-47
2022/07/26 10:33:54;;;;;;;6.35;2.90;;;;;;;27.32;100.00;96291.84;5050245;28;20080;-49
2022/07/26 10:36:24;;;;;;;4.40;2.97;;;;;;;27.07;100.00;96292.34;5050753;28;20088;-49
2022/07/26 10:39:04;;;;;;;5.40;3.28;;;;;;;26.17;100.00;96302.50;5049650;28;20482;-52
2022/07/26 10:41:38;;;;;;;4.43;3.20;;;;;;;27.17;100.00;96281.66;5045620;28;20076;-48
2022/07/26 10:44:14;;;;;;;4.78;3.25;;;;;;;26.97;100.00;96283.03;5051538;28;20464;-47
2022/07/26 10:46:57;;;;;;;4.47;3.08;;;;;;;27.41;100.00;96283.00;5045771;28;20743;-52
2022/07/26 10:49:29;;;;;;;5.43;3.25;;;;;;;26.99;100.00;96278.19;5050707;28;20084;-52
2022/07/26 10:52:09;;;;;;;6.25;3.10;;;;;;;28.08;100.00;96284.44;5048779;28;20088;-48
2022/07/26 10:55:14;;;;;;;3.83;2.85;;;;;;;27.44;100.00;96289.81;5046186;28;20077;-47
2022/07/26 10:57:46;;;;;;;4.65;2.65;;;;;;;27.63;100.00;96288.38;5048805;28;20089;-50
2022/07/26 11:00:20;;;;;;;4.65;2.50;;;;;;;27.79;100.00;96292.03;5048939;28;20080;-49
2022/07/26 11:02:58;;;;;;;2.65;1.90;;;;;;;27.62;100.00;96283.19;5044839;28;20069;-50
2022/07/26 11:05:33;;;;;;;5.10;2.20;;;;;;;27.52;100.00;96285.81;5046060;28;20068;-51
2022/07/26 11:08:08;;;;;;;4.05;2.20;;;;;;;26.97;100.00;96293.03;5049270;28;20530;-48
2022/07/26 11:10:39;;;;;;;3.53;1.98;;;;;;;26.66;100.00;96283.72;5047716;28;20487;-52
2022/07/26 11:13:11;;;;;;;3.63;2.22;;;;;;;27.16;100.00;96274.63;5047982;28;20588;-54
2022/07/26 11:15:43;;;;;;;3.63;2.15;;;;;;;27.43;100.00;96277.34;5050697;28;20087;-55
2022/07/26 11:18:20;;;;;;;6.00;2.50;;;;;;;27.77;100.00;96283.38;5046938;28;20076;-51
2022/07/26 11:20:51;;;;;;;3.22;2.30;;;;;;;27.87;100.00;96277.19;5048312;28;20080;-50
2022/07/26 11:23:24;;;;;;;3.13;2.28;;;;;;;28.07;100.00;96274.63;5045801;28;20077;-48
2022/07/26 11:26:10;;;;;;;3.97;2.28;;;;;;;29.04;100.00;96258.94;5045485;28;20085;-53
2022/07/26 11:28:54;;;;;;;4.15;2.20;;;;;;;30.06;97.47;96258.22;5046726;28;20087;-46
2022/07/26 11:31:35;;;;;;;8.18;2.10;;;;;;;29.58;100.00;96260.38;5046850;28;20073;-55
2022/07/26 11:34:24;;;;;;;3.42;1.88;;;;;;;28.92;100.00;96268.34;5047346;28;20590;-54
2022/07/26 11:36:54;;;;;;;2.75;2.15;;;;;;;29.01;100.00;96264.06;5044348;28;20091;-57
2022/07/26 11:39:23;;;;;;;;;;;;;;;28.54;100.00;96257.59;5045472;28;20081;-49
2022/07/26 11:41:52;;;;;;;4.72;1.88;;;;;;;29.09;98.80;96263.56;5048042;28;19971;-49
2022/07/26 11:44:23;;;;;;;3.55;1.98;;;;;;;29.38;100.00;96260.34;5047042;28;20077;-52